createdAt,value
2022-09-16T00:00:46.004Z,13.40
2022-09-16T00:02:56.705Z,13.20
2022-09-16T00:05:02.297Z,13.20
2022-09-16T00:07:10.412Z,13.20
2022-09-16T00:09:15.478Z,13.30
2022-09-16T00:11:21.581Z,13.30
2022-09-16T00:13:27.274Z,13.30
2022-09-16T00:15:32.366Z,13.30
2022-09-16T00:17:37.996Z,13.30
2022-09-16T00:19:43.645Z,13.30
2022-09-16T00:21:51.046Z,13.30
2022-09-16T00:24:00.356Z,13.30
2022-09-16T00:26:06.695Z,13.30
2022-09-16T00:28:12.755Z,13.20
2022-09-16T00:30:18.140Z,13.30
2022-09-16T00:32:24.174Z,13.20
2022-09-16T00:34:30.293Z,13.20
2022-09-16T00:36:35.629Z,13.30
2022-09-16T00:38:41.575Z,13.30
2022-09-16T00:40:53.461Z,13.30
2022-09-16T00:43:00.174Z,13.20
2022-09-16T00:45:08.896Z,13.10
2022-09-16T00:47:14.461Z,13.00
2022-09-16T00:49:27.236Z,13.00
2022-09-16T00:51:32.865Z,12.90
2022-09-16T00:53:43.590Z,12.90
2022-09-16T00:55:52.110Z,12.80
2022-09-16T00:58:03.104Z,12.70
2022-09-16T01:00:13.923Z,12.60
2022-09-16T01:02:21.931Z,12.60
2022-09-16T01:04:32.437Z,12.60
2022-09-16T01:06:41.763Z,12.70
2022-09-16T01:08:48.245Z,12.60
2022-09-16T01:10:56.375Z,12.60
2022-09-16T01:13:07.525Z,12.40
2022-09-16T01:15:14.472Z,12.50
2022-09-16T01:17:39.728Z,12.60
2022-09-16T01:20:06.469Z,12.50
2022-09-16T01:22:29.745Z,12.60
2022-09-16T01:24:54.866Z,12.50
2022-09-16T01:27:34.928Z,12.50
2022-09-16T01:30:06.410Z,12.40
2022-09-16T01:32:21.929Z,12.50
2022-09-16T01:34:43.725Z,12.50
2022-09-16T01:36:57.972Z,12.60
2022-09-16T01:39:17.083Z,12.70
2022-09-16T01:41:32.225Z,12.70
2022-09-16T01:43:50.912Z,12.60
2022-09-16T01:46:03.433Z,12.60
2022-09-16T01:48:17.406Z,12.60
2022-09-16T01:50:28.385Z,12.60
2022-09-16T01:52:48.994Z,12.40
2022-09-16T01:55:02.304Z,12.40
2022-09-16T01:57:14.847Z,12.50
2022-09-16T01:59:28.177Z,12.40
2022-09-16T02:01:37.271Z,12.50
2022-09-16T02:03:52.563Z,12.60
2022-09-16T02:06:01.982Z,12.40
2022-09-16T02:08:13.257Z,12.00
2022-09-16T02:10:27.880Z,11.90
2022-09-16T02:12:37.864Z,12.00
2022-09-16T02:14:46.457Z,12.00
2022-09-16T02:16:56.944Z,12.00
2022-09-16T02:19:11.537Z,12.00
2022-09-16T02:21:25.061Z,12.00
2022-09-16T02:23:36.764Z,12.00
2022-09-16T02:25:45.092Z,12.10
2022-09-16T02:27:52.169Z,12.00
2022-09-16T02:30:02.496Z,12.10
2022-09-16T02:32:12.074Z,12.00
2022-09-16T02:34:25.678Z,12.00
2022-09-16T02:36:31.687Z,12.00
2022-09-16T02:38:43.754Z,12.00
2022-09-16T02:40:54.445Z,12.00
2022-09-16T02:43:00.567Z,11.90
2022-09-16T02:45:07.013Z,11.90
2022-09-16T02:47:18.414Z,11.90
2022-09-16T02:49:37.369Z,11.90
2022-09-16T02:51:52.567Z,11.90
2022-09-16T02:54:04.281Z,12.10
2022-09-16T02:56:17.545Z,12.00
2022-09-16T02:58:22.785Z,11.80
2022-09-16T03:00:28.583Z,11.80
2022-09-16T03:02:35.678Z,11.80
2022-09-16T03:04:43.180Z,11.70
2022-09-16T03:06:49.879Z,11.70
2022-09-16T03:08:57.131Z,11.50
2022-09-16T03:11:11.666Z,11.50
2022-09-16T03:13:25.683Z,11.60
2022-09-16T03:15:54.539Z,11.50
2022-09-16T03:18:41.104Z,11.50
2022-09-16T03:20:57.571Z,11.60
2022-09-16T03:23:15.708Z,11.50
2022-09-16T03:25:36.784Z,11.60
2022-09-16T03:27:51.857Z,11.60
2022-09-16T03:30:05.699Z,11.50
2022-09-16T03:32:21.382Z,11.60
2022-09-16T03:34:33.542Z,11.50
2022-09-16T03:37:00.402Z,11.60
2022-09-16T03:39:07.639Z,11.60
2022-09-16T03:41:14.077Z,11.50
2022-09-16T03:43:20.137Z,11.70
2022-09-16T03:45:26.492Z,11.80
2022-09-16T03:47:31.376Z,11.70
2022-09-16T03:49:36.298Z,11.60
2022-09-16T03:51:44.618Z,11.70
2022-09-16T03:53:49.496Z,11.60
2022-09-16T03:55:54.605Z,11.60
2022-09-16T03:58:00.219Z,11.60
2022-09-16T04:00:06.617Z,11.60
2022-09-16T04:02:18.018Z,11.60
2022-09-16T04:04:23.070Z,11.60
2022-09-16T04:06:28.046Z,11.60
2022-09-16T04:08:36.252Z,11.50
2022-09-16T04:10:40.959Z,11.60
2022-09-16T04:12:46.233Z,11.50
2022-09-16T04:14:51.466Z,11.60
2022-09-16T04:16:58.105Z,11.50
2022-09-16T04:19:04.306Z,11.50
2022-09-16T04:21:09.209Z,11.50
2022-09-16T04:23:14.237Z,11.40
2022-09-16T04:25:22.725Z,11.40
2022-09-16T04:27:28.391Z,11.30
2022-09-16T04:29:36.942Z,11.30
2022-09-16T04:31:42.371Z,11.30
2022-09-16T04:33:47.261Z,11.30
2022-09-16T04:35:52.564Z,11.40
2022-09-16T04:37:57.441Z,11.50
2022-09-16T04:40:04.966Z,11.60
2022-09-16T04:42:12.878Z,11.60
2022-09-16T04:44:18.745Z,11.70
2022-09-16T04:46:24.077Z,11.60
2022-09-16T04:48:30.437Z,11.70
2022-09-16T04:50:36.473Z,11.70
2022-09-16T04:52:41.751Z,11.70
2022-09-16T04:54:47.125Z,11.70
2022-09-16T04:56:52.388Z,11.70
2022-09-16T04:59:03.205Z,11.70
2022-09-16T05:01:13.047Z,11.70
2022-09-16T05:03:19.705Z,11.70
2022-09-16T05:05:25.409Z,11.40
2022-09-16T05:07:31.770Z,11.30
2022-09-16T05:09:37.638Z,11.10
2022-09-16T05:11:44.448Z,11.20
2022-09-16T05:13:49.427Z,11.10
2022-09-16T05:15:57.893Z,11.10
2022-09-16T05:18:02.841Z,11.00
2022-09-16T05:20:09.736Z,10.90
2022-09-16T05:22:15.419Z,10.70
2022-09-16T05:24:20.708Z,10.80
2022-09-16T05:26:28.086Z,10.60
2022-09-16T05:28:33.945Z,10.50
2022-09-16T05:30:38.926Z,10.50
2022-09-16T05:32:46.942Z,10.60
2022-09-16T05:34:52.492Z,10.70
2022-09-16T05:36:58.420Z,10.70
2022-09-16T05:39:22.859Z,10.80
2022-09-16T05:41:29.318Z,10.90
2022-09-16T05:43:36.604Z,10.90
2022-09-16T05:45:41.545Z,10.90
2022-09-16T05:47:54.613Z,10.90
2022-09-16T05:49:59.816Z,10.90
2022-09-16T05:52:05.461Z,11.00
2022-09-16T05:54:11.549Z,11.00
2022-09-16T05:56:20.059Z,11.00
2022-09-16T05:58:25.289Z,11.10
2022-09-16T06:00:30.676Z,11.10
2022-09-16T06:02:35.655Z,11.10
2022-09-16T06:04:43.570Z,11.10
2022-09-16T06:06:50.022Z,11.10
2022-09-16T06:08:56.885Z,11.20
2022-09-16T06:11:04.600Z,11.30
2022-09-16T06:13:10.305Z,11.30
2022-09-16T06:15:15.668Z,11.20
2022-09-16T06:17:20.980Z,11.20
2022-09-16T06:19:26.404Z,11.20
2022-09-16T06:21:34.541Z,11.30
2022-09-16T06:23:41.416Z,11.30
2022-09-16T06:25:47.514Z,11.30
2022-09-16T06:27:52.796Z,11.30
2022-09-16T06:29:57.842Z,11.20
2022-09-16T06:32:02.757Z,11.30
2022-09-16T06:34:08.967Z,11.30
2022-09-16T06:36:17.795Z,11.30
2022-09-16T06:38:25.291Z,11.40
2022-09-16T06:40:30.752Z,11.40
2022-09-16T06:42:36.035Z,11.50
2022-09-16T06:44:45.160Z,11.50
2022-09-16T06:46:53.286Z,11.60
2022-09-16T06:49:07.226Z,11.70
2022-09-16T06:51:17.902Z,11.80
2022-09-16T06:53:35.979Z,11.90
2022-09-16T06:55:42.067Z,12.10
2022-09-16T06:57:53.495Z,12.20
2022-09-16T07:00:01.726Z,12.30
2022-09-16T07:02:14.033Z,12.30
2022-09-16T07:04:20.124Z,12.40
2022-09-16T07:09:14.940Z,12.60
2022-09-16T07:11:25.318Z,12.60
2022-09-16T07:13:34.740Z,12.50
2022-09-16T07:16:11.855Z,12.50
2022-09-16T07:18:13.478Z,12.50
2022-09-16T07:20:22.403Z,12.40
2022-09-16T07:22:37.028Z,12.40
2022-09-16T07:24:46.405Z,12.40
2022-09-16T07:26:57.206Z,12.30
2022-09-16T07:29:09.513Z,12.30
2022-09-16T07:31:34.752Z,12.20
2022-09-16T07:33:48.900Z,12.20
2022-09-16T07:35:55.067Z,12.30
2022-09-16T07:38:04.606Z,12.40
2022-09-16T07:40:14.373Z,12.40
2022-09-16T07:42:42.541Z,12.50
2022-09-16T07:44:52.527Z,12.60
2022-09-16T07:47:04.003Z,12.80
2022-09-16T07:49:17.357Z,12.80
2022-09-16T07:51:27.008Z,12.90
2022-09-16T07:53:43.123Z,13.00
2022-09-16T07:55:52.973Z,13.10
2022-09-16T07:58:09.350Z,13.10
2022-09-16T08:00:20.344Z,13.20
2022-09-16T08:02:29.251Z,13.30
2022-09-16T08:04:36.715Z,13.30
2022-09-16T08:06:47.459Z,13.40
2022-09-16T08:09:10.590Z,13.40
2022-09-16T08:11:36.321Z,13.50
2022-09-16T08:13:44.927Z,13.60
2022-09-16T08:15:51.098Z,13.70
2022-09-16T08:18:01.054Z,13.50
2022-09-16T08:20:10.941Z,13.60
2022-09-16T08:22:16.598Z,13.70
2022-09-16T08:24:22.851Z,13.80
2022-09-16T08:26:30.933Z,13.80
2022-09-16T08:28:51.160Z,13.70
2022-09-16T08:31:04.482Z,13.70
2022-09-16T08:33:12.977Z,13.60
2022-09-16T08:35:20.989Z,13.60
2022-09-16T08:37:29.261Z,13.70
2022-09-16T08:39:37.087Z,13.90
2022-09-16T08:42:31.319Z,14.00
2022-09-16T08:44:50.717Z,14.20
2022-09-16T08:47:02.803Z,14.10
2022-09-16T08:49:20.459Z,14.10
2022-09-16T08:51:29.190Z,14.00
2022-09-16T08:53:46.594Z,14.20
2022-09-16T08:55:54.657Z,14.10
2022-09-16T08:58:09.805Z,14.00
2022-09-16T09:00:25.126Z,13.90
2022-09-16T09:02:54.121Z,13.80
2022-09-16T09:05:01.753Z,13.90
2022-09-16T09:07:19.806Z,14.10
2022-09-16T09:10:00.029Z,14.20
2022-09-16T09:12:18.796Z,14.20
2022-09-16T09:14:50.155Z,14.00
2022-09-16T09:17:07.007Z,14.00
2022-09-16T09:19:35.298Z,14.20
2022-09-16T09:21:52.111Z,14.40
2022-09-16T09:24:38.218Z,14.50
2022-09-16T09:26:52.596Z,14.70
2022-09-16T09:29:29.781Z,14.70
2022-09-16T09:31:49.818Z,14.50
2022-09-16T09:34:07.307Z,14.30
2022-09-16T09:36:45.741Z,14.30
2022-09-16T09:39:16.519Z,14.30
2022-09-16T09:41:28.236Z,14.30
2022-09-16T09:46:01.647Z,14.50
2022-09-16T09:48:21.399Z,14.60
2022-09-16T09:50:37.454Z,14.80
2022-09-16T09:52:52.105Z,14.80
2022-09-16T09:55:04.106Z,14.60
2022-09-16T09:57:18.600Z,14.60
2022-09-16T09:59:36.212Z,15.00
2022-09-16T10:01:44.502Z,15.30
2022-09-16T10:03:57.374Z,15.40
2022-09-16T10:06:03.887Z,15.40
2022-09-16T10:08:32.714Z,15.40
2022-09-16T10:10:49.511Z,15.30
2022-09-16T10:12:56.775Z,15.30
2022-09-16T10:15:03.932Z,15.20
2022-09-16T10:17:19.938Z,15.00
2022-09-16T10:19:31.615Z,15.00
2022-09-16T10:21:47.844Z,15.00
2022-09-16T10:24:14.480Z,14.90
2022-09-16T10:26:25.454Z,14.90
2022-09-16T10:28:40.456Z,14.80
2022-09-16T10:30:55.036Z,14.80
2022-09-16T10:33:04.407Z,15.00
2022-09-16T10:35:24.561Z,15.10
2022-09-16T10:37:36.266Z,14.90
2022-09-16T10:39:50.080Z,15.20
2022-09-16T10:41:56.772Z,14.90
2022-09-16T10:44:05.843Z,14.80
2022-09-16T10:46:19.042Z,14.90
2022-09-16T10:48:32.325Z,14.80
2022-09-16T10:50:45.170Z,14.80
2022-09-16T10:52:59.385Z,15.10
2022-09-16T10:55:24.170Z,15.20
2022-09-16T10:57:36.377Z,15.00
2022-09-16T10:59:42.367Z,14.90
2022-09-16T11:01:58.346Z,15.00
2022-09-16T11:04:46.246Z,15.10
2022-09-16T11:07:12.981Z,15.40
2022-09-16T11:09:33.344Z,15.20
2022-09-16T11:12:03.764Z,15.30
2022-09-16T11:14:27.511Z,15.40
2022-09-16T11:17:06.093Z,15.40
2022-09-16T11:19:25.754Z,15.20
2022-09-16T11:22:15.365Z,15.30
2022-09-16T11:24:49.157Z,15.30
2022-09-16T11:27:06.584Z,15.30
2022-09-16T11:29:42.735Z,15.40
2022-09-16T11:32:03.101Z,15.60
2022-09-16T11:34:22.100Z,15.50
2022-09-16T11:36:53.112Z,15.40
2022-09-16T11:39:16.728Z,15.70
2022-09-16T11:41:30.940Z,15.80
2022-09-16T11:44:06.062Z,15.80
2022-09-16T11:46:23.676Z,15.80
2022-09-16T11:48:49.029Z,15.70
2022-09-16T11:51:04.764Z,15.60
2022-09-16T11:53:50.379Z,15.50
2022-09-16T11:56:06.860Z,15.40
2022-09-16T11:58:27.089Z,15.30
2022-09-16T12:00:35.333Z,15.40
2022-09-16T12:02:51.662Z,15.70
2022-09-16T12:05:05.340Z,15.50
2022-09-16T12:07:23.769Z,15.40
2022-09-16T12:09:45.058Z,15.60
2022-09-16T12:11:59.637Z,15.70
2022-09-16T12:14:16.559Z,15.70
2022-09-16T12:16:38.238Z,16.20
2022-09-16T12:18:52.963Z,16.20
2022-09-16T12:21:11.022Z,15.90
2022-09-16T12:23:29.143Z,15.70
2022-09-16T12:25:46.118Z,16.10
2022-09-16T12:27:57.152Z,16.70
2022-09-16T12:30:11.896Z,16.60
2022-09-16T12:32:24.372Z,16.30
2022-09-16T12:34:36.244Z,16.30
2022-09-16T12:36:48.163Z,16.20
2022-09-16T12:38:56.787Z,16.40
2022-09-16T12:41:42.069Z,17.10
2022-09-16T12:44:34.962Z,16.90
2022-09-16T12:47:14.759Z,16.60
2022-09-16T12:50:05.060Z,16.50
2022-09-16T12:52:39.208Z,16.70
2022-09-16T12:55:24.605Z,17.20
2022-09-16T12:57:48.177Z,17.10
2022-09-16T13:00:14.901Z,16.70
2022-09-16T13:02:25.755Z,16.20
2022-09-16T13:04:42.052Z,16.90
2022-09-16T13:06:58.469Z,17.70
2022-09-16T13:09:24.519Z,17.60
2022-09-16T13:14:01.996Z,18.70
2022-09-16T13:16:13.062Z,18.90
2022-09-16T13:18:29.416Z,19.30
2022-09-16T13:20:39.592Z,18.40
2022-09-16T13:22:51.925Z,18.90
2022-09-16T13:25:11.174Z,18.60
2022-09-16T13:27:34.708Z,18.40
2022-09-16T13:29:46.785Z,17.80
2022-09-16T13:31:57.235Z,17.70
2022-09-16T13:34:19.098Z,17.90
2022-09-16T13:36:36.199Z,18.10
2022-09-16T13:38:42.868Z,18.10
2022-09-16T13:41:00.831Z,18.10
2022-09-16T13:43:17.682Z,17.20
2022-09-16T13:45:42.897Z,17.00
2022-09-16T13:47:57.352Z,17.00
2022-09-16T13:50:12.578Z,16.60
2022-09-16T13:52:24.470Z,16.80
2022-09-16T13:54:43.223Z,16.90
2022-09-16T13:57:28.825Z,17.00
2022-09-16T13:59:52.629Z,16.90
2022-09-16T14:02:15.930Z,16.80
2022-09-16T14:04:48.695Z,17.20
2022-09-16T14:07:15.497Z,18.10
2022-09-16T14:09:34.621Z,18.20
2022-09-16T14:11:49.784Z,17.30
2022-09-16T14:14:05.527Z,17.30
2022-09-16T14:16:23.111Z,17.10
2022-09-16T14:18:33.344Z,16.70
2022-09-16T14:20:54.500Z,16.30
2022-09-16T14:23:19.788Z,15.50
2022-09-16T14:25:42.215Z,14.80
2022-09-16T14:30:22.033Z,13.90
2022-09-16T14:32:32.898Z,13.90
2022-09-16T14:34:41.504Z,14.10
2022-09-16T14:36:52.574Z,13.60
2022-09-16T14:39:01.974Z,13.90
2022-09-16T14:41:13.988Z,14.00
2022-09-16T14:43:25.394Z,13.70
2022-09-16T14:45:38.519Z,13.60
2022-09-16T14:47:53.617Z,13.50
2022-09-16T14:50:15.351Z,13.80
2022-09-16T14:52:36.965Z,13.60
2022-09-16T14:54:49.397Z,13.60
2022-09-16T14:57:20.716Z,13.80
2022-09-16T14:59:31.239Z,13.90
2022-09-16T15:01:43.768Z,13.30
2022-09-16T15:03:52.941Z,13.10
2022-09-16T15:06:17.274Z,13.10
2022-09-16T15:08:47.338Z,13.30
2022-09-16T15:11:02.892Z,13.40
2022-09-16T15:13:17.415Z,14.10
2022-09-16T15:15:37.994Z,14.40
2022-09-16T15:17:47.383Z,14.70
2022-09-16T15:20:07.647Z,15.00
2022-09-16T15:22:18.446Z,15.30
2022-09-16T15:24:33.361Z,15.40
2022-09-16T15:26:49.802Z,15.30
2022-09-16T15:29:01.059Z,15.30
2022-09-16T15:31:08.330Z,15.30
2022-09-16T15:33:40.616Z,15.20
2022-09-16T15:35:56.316Z,15.30
2022-09-16T15:38:12.980Z,15.40
2022-09-16T15:40:37.166Z,15.40
2022-09-16T15:42:43.973Z,15.60
2022-09-16T15:44:53.447Z,15.80
2022-09-16T15:47:00.917Z,15.10
2022-09-16T15:49:15.054Z,15.30
2022-09-16T15:51:36.178Z,15.50
2022-09-16T15:53:47.670Z,15.40
2022-09-16T15:56:04.591Z,15.50
2022-09-16T15:58:20.149Z,15.30
2022-09-16T16:00:26.079Z,15.00
2022-09-16T16:02:41.942Z,15.00
2022-09-16T16:04:56.485Z,14.80
2022-09-16T16:07:05.674Z,15.00
2022-09-16T16:09:38.284Z,15.00
2022-09-16T16:11:50.957Z,14.70
2022-09-16T16:13:59.807Z,14.30
2022-09-16T16:16:08.357Z,14.40
2022-09-16T16:18:16.196Z,14.40
2022-09-16T16:20:24.106Z,14.30
2022-09-16T16:22:32.521Z,14.60
2022-09-16T16:24:42.446Z,14.80
2022-09-16T16:26:56.608Z,14.80
2022-09-16T16:29:02.389Z,14.90
2022-09-16T16:31:14.094Z,14.90
2022-09-16T16:33:19.601Z,14.90
2022-09-16T16:35:26.838Z,15.10
2022-09-16T16:37:52.480Z,15.10
2022-09-16T16:40:01.308Z,15.30
2022-09-16T16:42:19.165Z,14.80
2022-09-16T16:44:27.728Z,14.90
2022-09-16T16:46:33.567Z,14.90
2022-09-16T16:48:42.739Z,14.70
2022-09-16T16:50:57.188Z,14.40
2022-09-16T16:53:06.140Z,14.40
2022-09-16T16:55:12.624Z,14.40
2022-09-16T16:57:20.882Z,14.20
2022-09-16T16:59:32.514Z,14.20
2022-09-16T17:01:39.175Z,14.00
2022-09-16T17:03:49.485Z,13.80
2022-09-16T17:05:57.110Z,13.60
2022-09-16T17:08:02.794Z,13.60
2022-09-16T17:10:09.303Z,13.40
2022-09-16T17:12:15.627Z,13.30
2022-09-16T17:14:24.637Z,13.20
2022-09-16T17:16:35.248Z,13.10
2022-09-16T17:18:42.804Z,13.30
2022-09-16T17:20:51.306Z,13.40
2022-09-16T17:22:56.521Z,13.40
2022-09-16T17:25:02.347Z,13.20
2022-09-16T17:27:08.150Z,13.20
2022-09-16T17:29:15.968Z,12.80
2022-09-16T17:31:30.599Z,12.90
2022-09-16T17:33:44.057Z,12.90
2022-09-16T17:36:09.531Z,12.90
2022-09-16T17:38:15.412Z,12.90
2022-09-16T17:40:24.752Z,12.70
2022-09-16T17:42:35.429Z,12.70
2022-09-16T17:44:46.520Z,12.80
2022-09-16T17:47:07.032Z,12.80
2022-09-16T17:49:18.962Z,12.80
2022-09-16T17:51:34.251Z,12.70
2022-09-16T17:53:43.310Z,12.80
2022-09-16T17:55:49.957Z,12.60
2022-09-16T17:57:55.790Z,12.40
2022-09-16T18:00:01.917Z,12.40
2022-09-16T18:02:22.640Z,12.10
2022-09-16T18:04:31.264Z,12.10
2022-09-16T18:09:39.233Z,12.30
2022-09-16T18:11:48.805Z,12.30
2022-09-16T18:13:58.263Z,12.20
2022-09-16T18:16:12.410Z,12.30
2022-09-16T18:18:28.523Z,12.20
2022-09-16T18:20:36.591Z,12.30
2022-09-16T18:22:48.222Z,12.20
2022-09-16T18:24:53.227Z,12.20
2022-09-16T18:27:02.523Z,11.90
2022-09-16T18:29:10.873Z,11.90
2022-09-16T18:31:19.331Z,11.90
2022-09-16T18:33:27.005Z,11.90
2022-09-16T18:35:32.258Z,11.90
2022-09-16T18:37:37.611Z,12.00
2022-09-16T18:39:42.644Z,12.00
2022-09-16T18:41:48.835Z,12.00
2022-09-16T18:43:57.579Z,11.90
2022-09-16T18:46:14.357Z,11.90
2022-09-16T18:48:19.394Z,12.00
2022-09-16T18:50:27.257Z,11.90
2022-09-16T18:52:43.802Z,11.90
2022-09-16T18:54:49.250Z,12.00
2022-09-16T18:56:56.599Z,12.00
2022-09-16T18:59:26.140Z,12.00
2022-09-16T19:01:39.626Z,12.00
2022-09-16T19:03:51.340Z,11.40
2022-09-16T19:06:09.184Z,11.40
2022-09-16T19:08:14.828Z,11.30
2022-09-16T19:10:26.818Z,11.20
2022-09-16T19:12:40.683Z,11.40
2022-09-16T19:14:47.384Z,11.50
2022-09-16T19:17:01.579Z,11.60
2022-09-16T19:19:12.772Z,11.60
2022-09-16T19:21:25.263Z,11.60
2022-09-16T19:23:33.897Z,11.50
2022-09-16T19:25:42.863Z,11.40
2022-09-16T19:27:48.475Z,11.40
2022-09-16T19:29:59.649Z,11.40
2022-09-16T19:32:05.641Z,11.30
2022-09-16T19:34:12.612Z,11.40
2022-09-16T19:36:23.994Z,11.40
2022-09-16T19:38:29.985Z,11.30
2022-09-16T19:40:46.728Z,11.10
2022-09-16T19:42:54.923Z,11.20
2022-09-16T19:45:00.344Z,11.20
2022-09-16T19:47:08.646Z,11.30
2022-09-16T19:49:23.110Z,11.20
2022-09-16T19:51:43.228Z,11.20
2022-09-16T19:53:50.188Z,11.00
2022-09-16T19:56:02.200Z,11.10
2022-09-16T19:58:08.394Z,11.00
2022-09-16T20:00:20.751Z,11.00
2022-09-16T20:02:30.576Z,11.10
2022-09-16T20:04:41.439Z,11.10
2022-09-16T20:06:50.416Z,11.10
2022-09-16T20:08:58.767Z,11.00
2022-09-16T20:11:09.946Z,10.90
2022-09-16T20:13:15.287Z,10.90
2022-09-16T20:15:22.596Z,10.90
2022-09-16T20:17:28.033Z,10.80
2022-09-16T20:19:35.620Z,10.60
2022-09-16T20:21:41.319Z,10.70
2022-09-16T20:23:49.888Z,10.40
2022-09-16T20:25:59.260Z,10.00
2022-09-16T20:28:04.697Z,10.10
2022-09-16T20:30:11.455Z,10.20
2022-09-16T20:32:16.447Z,10.10
2022-09-16T20:34:23.850Z,10.10
2022-09-16T20:36:32.614Z,10.10
2022-09-16T20:38:37.710Z,10.20
2022-09-16T20:40:46.532Z,10.50
2022-09-16T20:42:51.601Z,10.50
2022-09-16T20:44:56.567Z,10.30
2022-09-16T20:47:02.148Z,10.30
2022-09-16T20:49:12.034Z,10.40
2022-09-16T20:51:22.175Z,10.40
2022-09-16T20:53:27.232Z,10.50
2022-09-16T20:55:34.475Z,10.50
2022-09-16T20:57:42.209Z,10.30
2022-09-16T20:59:47.847Z,10.30
2022-09-16T21:01:52.888Z,10.30
2022-09-16T21:04:00.950Z,10.40
2022-09-16T21:06:07.707Z,10.50
2022-09-16T21:08:13.485Z,10.40
2022-09-16T21:10:19.640Z,10.40
2022-09-16T21:12:24.827Z,10.40
2022-09-16T21:14:32.407Z,10.40
2022-09-16T21:16:41.151Z,10.30
2022-09-16T21:18:46.937Z,10.10
2022-09-16T21:20:52.443Z,10.10
2022-09-16T21:22:57.549Z,10.10
2022-09-16T21:25:02.863Z,10.10
2022-09-16T21:27:08.513Z,10.10
2022-09-16T21:29:17.649Z,10.00
2022-09-16T21:31:26.047Z,9.60
2022-09-16T21:33:32.594Z,9.40
2022-09-16T21:35:41.320Z,9.40
2022-09-16T21:37:47.290Z,9.40
2022-09-16T21:39:52.652Z,9.40
2022-09-16T21:41:58.026Z,9.60
2022-09-16T21:44:03.951Z,9.30
2022-09-16T21:46:15.074Z,9.40
2022-09-16T21:48:23.054Z,9.40
2022-09-16T21:50:28.459Z,9.60
2022-09-16T21:52:33.472Z,9.60
2022-09-16T21:54:38.463Z,9.60
2022-09-16T21:56:45.182Z,9.70
2022-09-16T21:58:52.607Z,9.70
2022-09-16T22:01:11.433Z,9.70
2022-09-16T22:03:16.593Z,9.70
2022-09-16T22:05:24.544Z,9.80
2022-09-16T22:07:30.008Z,9.80
2022-09-16T22:09:34.989Z,9.80
2022-09-16T22:11:43.332Z,9.80
2022-09-16T22:13:49.591Z,9.70
2022-09-16T22:15:57.690Z,9.60
2022-09-16T22:18:03.225Z,9.60
2022-09-16T22:20:09.977Z,9.60
2022-09-16T22:22:18.022Z,9.70
2022-09-16T22:24:23.426Z,9.60
2022-09-16T22:26:30.501Z,9.50
2022-09-16T22:28:37.025Z,9.60
2022-09-16T22:30:42.514Z,9.60
2022-09-16T22:32:47.877Z,9.60
2022-09-16T22:34:52.954Z,9.60
2022-09-16T22:36:59.700Z,9.60
2022-09-16T22:39:16.252Z,9.60
2022-09-16T22:41:25.643Z,9.60
2022-09-16T22:43:36.894Z,9.60
2022-09-16T22:45:43.907Z,9.60
2022-09-16T22:47:50.040Z,9.50
2022-09-16T22:50:03.732Z,9.50
2022-09-16T22:52:13.252Z,9.50
2022-09-16T22:54:21.862Z,9.50
2022-09-16T22:56:33.597Z,9.40
2022-09-16T22:58:39.044Z,9.40
2022-09-16T23:00:44.251Z,9.50
2022-09-16T23:02:49.650Z,9.50
2022-09-16T23:05:00.703Z,9.60
2022-09-16T23:07:07.228Z,9.60
2022-09-16T23:09:15.254Z,9.60
2022-09-16T23:11:29.222Z,9.50
2022-09-16T23:13:36.690Z,9.40
2022-09-16T23:15:42.760Z,9.30
2022-09-16T23:17:48.543Z,9.20
2022-09-16T23:19:54.722Z,9.20
2022-09-16T23:22:00.355Z,9.20
2022-09-16T23:24:08.507Z,9.30
2022-09-16T23:26:18.835Z,9.10
2022-09-16T23:28:26.760Z,9.10
2022-09-16T23:30:31.549Z,9.00
2022-09-16T23:32:37.297Z,9.10
2022-09-16T23:34:42.370Z,9.10
2022-09-16T23:36:48.629Z,9.10
2022-09-16T23:39:03.208Z,9.20
2022-09-16T23:41:10.912Z,9.20
2022-09-16T23:43:16.299Z,9.30
2022-09-16T23:45:37.197Z,9.20
2022-09-16T23:47:42.506Z,9.20
2022-09-16T23:49:48.099Z,9.30
2022-09-16T23:51:53.137Z,9.40
2022-09-16T23:54:00.248Z,9.40
2022-09-16T23:56:09.121Z,9.20
2022-09-16T23:58:14.734Z,9.20
